Time;durP1;ratioP1;P1;durP2;ratioP2;P2;SDS_P1;SDS_P2;PMS_P1;PMS_P2;Temp;Humidity;BMP_temperature;BMP_pressure;BME280_temperature;BME280_humidity;BME280_pressure;Samples;Min_cycle;Max_cycle;Signal;HPM_P1;HPM_P2
2020/08/10 00:01:45;;;;;;;3.42;3.10;;;;;;;22.90;67.32;100250.59;;;;-46
2020/08/10 00:04:45;;;;;;;3.35;3.05;;;;;;;22.90;67.28;100251.26;;;;-47
2020/08/10 00:07:45;;;;;;;3.39;3.09;;;;;;;22.89;67.32;100246.62;;;;-47
2020/08/10 00:10:45;;;;;;;3.22;2.92;;;;;;;22.88;67.28;100248.23;;;;-47
2020/08/10 00:13:45;;;;;;;3.55;3.25;;;;;;;22.88;67.30;100244.48;;;;-48
2020/08/10 00:16:45;;;;;;;3.31;3.00;;;;;;;22.88;67.27;100245.38;;;;-47
2020/08/10 00:19:45;;;;;;;3.39;3.09;;;;;;;22.88;67.28;100244.80;;;;-47
2020/08/10 00:22:45;;;;;;;3.19;2.89;;;;;;;22.88;67.26;100242.86;;;;-47
2020/08/10 00:25:45;;;;;;;3.20;2.90;;;;;;;22.87;67.25;100232.50;;;;-48
2020/08/10 00:28:45;;;;;;;3.37;3.08;;;;;;;22.88;67.21;100231.67;;;;-47
2020/08/10 00:31:45;;;;;;;3.29;3.07;;;;;;;22.87;67.26;100230.03;;;;-48
2020/08/10 00:34:45;;;;;;;3.45;3.15;;;;;;;22.87;67.25;100231.94;;;;-47
2020/08/10 00:37:45;;;;;;;3.41;3.11;;;;;;;22.87;67.24;100232.31;;;;-47
2020/08/10 00:40:45;;;;;;;3.11;2.81;;;;;;;22.86;67.24;100232.08;;;;-47
2020/08/10 00:43:45;;;;;;;3.41;3.11;;;;;;;22.86;67.27;100233.15;;;;-48
2020/08/10 00:46:45;;;;;;;3.23;2.98;;;;;;;22.86;67.22;100231.67;;;;-47
2020/08/10 00:49:45;;;;;;;3.27;2.97;;;;;;;22.85;67.23;100233.91;;;;-47
2020/08/10 00:52:45;;;;;;;3.36;3.06;;;;;;;22.85;67.21;100233.50;;;;-47
2020/08/10 00:55:45;;;;;;;3.21;2.91;;;;;;;22.85;67.23;100236.09;;;;-47
2020/08/10 00:58:45;;;;;;;3.95;3.13;;;;;;;22.85;67.19;100237.02;;;;-47
2020/08/10 01:01:45;;;;;;;3.32;3.02;;;;;;;22.85;67.24;100232.19;;;;-47
2020/08/10 01:04:45;;;;;;;3.28;2.98;;;;;;;22.84;67.18;100232.92;;;;-48
2020/08/10 01:07:45;;;;;;;3.04;2.83;;;;;;;22.84;67.23;100231.61;;;;-47
2020/08/10 01:10:45;;;;;;;3.19;2.89;;;;;;;22.84;67.22;100227.37;;;;-49
2020/08/10 01:13:45;;;;;;;3.16;2.89;;;;;;;22.83;67.18;100222.50;;;;-47
2020/08/10 01:16:45;;;;;;;3.32;3.00;;;;;;;22.83;67.19;100220.85;;;;-47
2020/08/10 01:19:45;;;;;;;3.24;2.95;;;;;;;22.83;67.21;100219.45;;;;-46
2020/08/10 01:22:45;;;;;;;3.03;2.83;;;;;;;22.83;67.21;100217.84;;;;-47
2020/08/10 01:25:45;;;;;;;3.20;2.90;;;;;;;22.83;67.17;100225.17;;;;-47
2020/08/10 01:28:45;;;;;;;3.19;2.97;;;;;;;22.83;67.21;100227.63;;;;-48
2020/08/10 01:31:45;;;;;;;3.13;2.85;;;;;;;22.82;67.23;100230.66;;;;-48
2020/08/10 01:34:45;;;;;;;3.01;2.81;;;;;;;22.83;67.19;100229.26;;;;-47
2020/08/10 01:37:45;;;;;;;3.19;2.97;;;;;;;22.82;67.20;100232.87;;;;-47
2020/08/10 01:40:45;;;;;;;3.23;2.93;;;;;;;22.82;67.21;100227.97;;;;-47
2020/08/10 01:43:45;;;;;;;3.03;2.80;;;;;;;22.82;67.26;100225.53;;;;-48
2020/08/10 01:46:45;;;;;;;3.31;3.05;;;;;;;22.81;67.21;100216.72;;;;-47
2020/08/10 01:49:45;;;;;;;3.06;2.86;;;;;;;22.81;67.22;100216.48;;;;-48
2020/08/10 01:52:45;;;;;;;3.08;2.85;;;;;;;22.81;67.26;100216.14;;;;-47
2020/08/10 01:55:45;;;;;;;3.25;3.05;;;;;;;22.81;67.25;100217.12;;;;-47
2020/08/10 01:58:45;;;;;;;3.57;2.92;;;;;;;22.80;67.26;100214.59;;;;-48
2020/08/10 02:01:45;;;;;;;3.14;2.90;;;;;;;22.80;67.32;100220.37;;;;-47
2020/08/10 02:04:45;;;;;;;3.33;3.03;;;;;;;22.81;67.29;100221.70;;;;-48
2020/08/10 02:07:45;;;;;;;2.91;2.71;;;;;;;22.80;67.28;100225.45;;;;-47
2020/08/10 02:10:45;;;;;;;3.11;2.91;;;;;;;22.80;67.29;100221.36;;;;-46
2020/08/10 02:13:45;;;;;;;2.96;2.76;;;;;;;22.80;67.36;100222.25;;;;-47
2020/08/10 02:16:45;;;;;;;3.30;3.10;;;;;;;22.79;67.39;100217.30;;;;-49
2020/08/10 02:19:45;;;;;;;2.98;2.78;;;;;;;22.80;67.33;100212.23;;;;-47
2020/08/10 02:22:45;;;;;;;2.90;2.70;;;;;;;22.79;67.36;100209.30;;;;-47
2020/08/10 02:25:45;;;;;;;3.09;2.89;;;;;;;22.79;67.38;100207.19;;;;-47
2020/08/10 02:28:45;;;;;;;3.08;2.88;;;;;;;22.78;67.34;100210.02;;;;-47
2020/08/10 02:31:45;;;;;;;3.08;2.88;;;;;;;22.79;67.41;100212.49;;;;-47
2020/08/10 02:34:45;;;;;;;3.08;2.81;;;;;;;22.79;67.41;100214.05;;;;-47
2020/08/10 02:37:45;;;;;;;2.97;2.77;;;;;;;22.78;67.43;100211.00;;;;-48
2020/08/10 02:40:45;;;;;;;3.07;2.87;;;;;;;22.78;67.43;100217.64;;;;-47
2020/08/10 02:43:45;;;;;;;2.90;2.70;;;;;;;22.77;67.43;100232.77;;;;-47
2020/08/10 02:46:45;;;;;;;3.19;2.99;;;;;;;22.78;67.40;100240.27;;;;-49
2020/08/10 02:49:45;;;;;;;2.97;2.67;;;;;;;22.78;67.39;100234.96;;;;-48
2020/08/10 02:52:45;;;;;;;2.97;2.77;;;;;;;22.77;67.45;100231.94;;;;-47
2020/08/10 02:55:45;;;;;;;3.27;2.79;;;;;;;22.77;67.42;100228.11;;;;-47
2020/08/10 02:58:45;;;;;;;2.89;2.69;;;;;;;22.77;67.45;100223.87;;;;-47
2020/08/10 03:01:45;;;;;;;3.12;2.85;;;;;;;22.77;67.50;100229.67;;;;-47
2020/08/10 03:04:45;;;;;;;2.91;2.71;;;;;;;22.77;67.50;100230.09;;;;-47
2020/08/10 03:07:45;;;;;;;2.97;2.77;;;;;;;22.77;67.50;100227.80;;;;-48
2020/08/10 03:10:45;;;;;;;3.25;2.95;;;;;;;22.76;67.50;100225.83;;;;-48
2020/08/10 03:13:45;;;;;;;2.86;2.66;;;;;;;22.76;67.50;100228.85;;;;-47
2020/08/10 03:16:45;;;;;;;2.99;2.79;;;;;;;22.75;67.52;100225.28;;;;-47
2020/08/10 03:19:45;;;;;;;3.07;2.78;;;;;;;22.75;67.53;100225.84;;;;-47
2020/08/10 03:22:45;;;;;;;2.95;2.75;;;;;;;22.75;67.49;100221.69;;;;-47
2020/08/10 03:25:45;;;;;;;3.10;2.90;;;;;;;22.75;67.50;100224.88;;;;-47
2020/08/10 03:28:45;;;;;;;3.11;2.91;;;;;;;22.75;67.50;100229.04;;;;-48
2020/08/10 03:31:45;;;;;;;2.82;2.62;;;;;;;22.75;67.49;100231.00;;;;-49
2020/08/10 03:34:45;;;;;;;2.90;2.70;;;;;;;22.74;67.52;100228.95;;;;-47
2020/08/10 03:37:45;;;;;;;3.05;2.85;;;;;;;22.74;67.50;100231.83;;;;-47
2020/08/10 03:40:45;;;;;;;2.99;2.79;;;;;;;22.74;67.53;100238.27;;;;-47
2020/08/10 03:43:45;;;;;;;3.18;2.85;;;;;;;22.74;67.56;100234.42;;;;-49
2020/08/10 03:46:45;;;;;;;2.97;2.77;;;;;;;22.74;67.53;100235.57;;;;-47
2020/08/10 03:49:45;;;;;;;3.07;2.73;;;;;;;22.73;67.50;100228.72;;;;-47
2020/08/10 03:52:45;;;;;;;3.06;2.82;;;;;;;22.74;67.54;100227.64;;;;-47
2020/08/10 03:55:45;;;;;;;2.94;2.74;;;;;;;22.73;67.52;100229.05;;;;-47
2020/08/10 03:58:45;;;;;;;2.99;2.79;;;;;;;22.73;67.54;100228.81;;;;-47
2020/08/10 04:01:45;;;;;;;3.08;2.88;;;;;;;22.73;67.57;100231.84;;;;-47
2020/08/10 04:06:45;;;;;;;3.11;2.91;;;;;;;22.73;67.54;100231.02;;;;-47
2020/08/10 04:09:45;;;;;;;2.98;2.78;;;;;;;22.73;67.56;100227.67;;;;-47
2020/08/10 04:12:45;;;;;;;3.13;2.93;;;;;;;22.73;67.54;100231.35;;;;-47
2020/08/10 04:15:45;;;;;;;3.03;2.83;;;;;;;22.72;67.57;100231.91;;;;-47
2020/08/10 04:18:45;;;;;;;2.85;2.65;;;;;;;22.73;67.55;100230.45;;;;-47
2020/08/10 04:21:45;;;;;;;3.09;2.79;;;;;;;22.72;67.52;100228.56;;;;-48
2020/08/10 04:24:45;;;;;;;2.89;2.69;;;;;;;22.72;67.57;100229.13;;;;-47
2020/08/10 04:27:45;;;;;;;2.82;2.62;;;;;;;22.72;67.57;100235.35;;;;-47
2020/08/10 04:30:45;;;;;;;3.05;2.85;;;;;;;22.71;67.54;100245.41;;;;-47
2020/08/10 04:33:45;;;;;;;2.97;2.77;;;;;;;22.72;67.57;100256.51;;;;-47
2020/08/10 04:36:45;;;;;;;3.15;2.91;;;;;;;22.72;67.55;100256.51;;;;-47
2020/08/10 04:39:45;;;;;;;2.97;2.77;;;;;;;22.72;67.53;100253.23;;;;-49
2020/08/10 04:42:45;;;;;;;2.89;2.69;;;;;;;22.71;67.57;100252.36;;;;-47
2020/08/10 04:45:45;;;;;;;2.90;2.70;;;;;;;22.72;67.60;100251.86;;;;-47
2020/08/10 04:48:45;;;;;;;3.00;2.80;;;;;;;22.71;67.54;100245.66;;;;-47
2020/08/10 04:51:45;;;;;;;3.03;2.83;;;;;;;22.71;67.57;100247.78;;;;-47
2020/08/10 04:54:45;;;;;;;2.87;2.66;;;;;;;22.71;67.53;100248.52;;;;-47
2020/08/10 04:57:45;;;;;;;2.79;2.58;;;;;;;22.70;67.52;100249.59;;;;-46
2020/08/10 05:00:45;;;;;;;2.83;2.63;;;;;;;22.71;67.54;100252.12;;;;-47
2020/08/10 05:03:45;;;;;;;2.71;2.51;;;;;;;22.70;67.51;100246.47;;;;-47
2020/08/10 05:06:45;;;;;;;2.90;2.70;;;;;;;22.70;67.54;100249.73;;;;-47
2020/08/10 05:09:45;;;;;;;2.97;2.77;;;;;;;22.69;67.53;100251.88;;;;-47
2020/08/10 05:12:45;;;;;;;2.84;2.64;;;;;;;22.69;67.54;100255.72;;;;-48
2020/08/10 05:15:45;;;;;;;3.04;2.80;;;;;;;22.69;67.48;100258.34;;;;-47
2020/08/10 05:18:45;;;;;;;2.79;2.59;;;;;;;22.69;67.53;100259.88;;;;-47
2020/08/10 05:21:45;;;;;;;2.81;2.61;;;;;;;22.70;67.57;100254.89;;;;-47
2020/08/10 05:26:45;;;;;;;2.93;2.73;;;;;;;22.69;67.57;100249.35;;;;-47
2020/08/10 05:29:45;;;;;;;2.89;2.69;;;;;;;22.69;67.55;100252.22;;;;-47
2020/08/10 05:32:45;;;;;;;2.96;2.76;;;;;;;22.68;67.58;100248.30;;;;-47
2020/08/10 05:35:45;;;;;;;2.66;2.46;;;;;;;22.68;67.52;100252.72;;;;-47
2020/08/10 05:38:45;;;;;;;2.70;2.50;;;;;;;22.68;67.55;100257.38;;;;-47
2020/08/10 05:41:45;;;;;;;2.70;2.50;;;;;;;22.68;67.52;100264.24;;;;-47
2020/08/10 05:44:45;;;;;;;2.76;2.56;;;;;;;22.68;67.58;100258.18;;;;-47
2020/08/10 05:47:45;;;;;;;2.93;2.73;;;;;;;22.68;67.51;100256.78;;;;-47
2020/08/10 05:51:45;;;;;;;2.69;2.49;;;;;;;22.68;67.52;100246.66;;;;-47
2020/08/10 05:56:45;;;;;;;2.80;2.60;;;;;;;22.67;67.56;100246.83;;;;-47
2020/08/10 05:59:45;;;;;;;2.65;2.45;;;;;;;22.67;67.54;100244.55;;;;-47
2020/08/10 06:02:45;;;;;;;2.72;2.52;;;;;;;22.67;67.53;100245.38;;;;-47
2020/08/10 06:05:45;;;;;;;2.82;2.62;;;;;;;22.66;67.53;100247.77;;;;-47
2020/08/10 06:08:45;;;;;;;2.69;2.49;;;;;;;22.66;67.55;100247.84;;;;-48
2020/08/10 06:11:45;;;;;;;2.71;2.51;;;;;;;22.67;67.55;100246.20;;;;-47
2020/08/10 06:14:45;;;;;;;2.89;2.69;;;;;;;22.66;67.53;100243.75;;;;-48
2020/08/10 06:18:45;;;;;;;2.86;2.66;;;;;;;22.66;67.53;100240.91;;;;-47
2020/08/10 06:21:45;;;;;;;2.80;2.60;;;;;;;22.66;67.57;100246.95;;;;-48
2020/08/10 06:24:45;;;;;;;2.71;2.51;;;;;;;22.66;67.54;100246.30;;;;-47
2020/08/10 06:27:45;;;;;;;2.83;2.63;;;;;;;22.66;67.54;100244.97;;;;-48
2020/08/10 06:30:45;;;;;;;2.71;2.51;;;;;;;22.66;67.55;100244.06;;;;-48
2020/08/10 06:33:45;;;;;;;2.63;2.43;;;;;;;22.66;67.51;100240.73;;;;-47
2020/08/10 06:36:45;;;;;;;2.86;2.66;;;;;;;22.65;67.52;100238.61;;;;-47
2020/08/10 06:39:45;;;;;;;2.70;2.50;;;;;;;22.66;67.56;100242.92;;;;-47
2020/08/10 06:42:45;;;;;;;2.90;2.70;;;;;;;22.66;67.55;100242.54;;;;-47
2020/08/10 06:45:45;;;;;;;2.63;2.43;;;;;;;22.65;67.50;100243.75;;;;-48
2020/08/10 06:48:45;;;;;;;2.69;2.49;;;;;;;22.65;67.55;100242.61;;;;-47
2020/08/10 06:51:45;;;;;;;3.05;2.85;;;;;;;22.65;67.51;100236.58;;;;-47
2020/08/10 06:54:45;;;;;;;2.81;2.61;;;;;;;22.65;67.52;100236.07;;;;-47
2020/08/10 06:57:45;;;;;;;2.70;2.50;;;;;;;22.65;67.49;100237.80;;;;-47
2020/08/10 07:00:45;;;;;;;2.85;2.65;;;;;;;22.65;67.50;100240.33;;;;-47
2020/08/10 07:03:45;;;;;;;2.67;2.47;;;;;;;22.64;67.51;100241.66;;;;-48
2020/08/10 07:06:45;;;;;;;2.87;2.67;;;;;;;22.65;67.48;100241.80;;;;-47
2020/08/10 07:09:45;;;;;;;2.83;2.63;;;;;;;22.64;67.51;100242.47;;;;-47
2020/08/10 07:12:45;;;;;;;2.70;2.50;;;;;;;22.64;67.52;100240.44;;;;-46
2020/08/10 07:15:45;;;;;;;2.71;2.51;;;;;;;22.64;67.50;100240.59;;;;-47
2020/08/10 07:18:45;;;;;;;2.73;2.53;;;;;;;22.64;67.46;100237.80;;;;-47
2020/08/10 07:21:45;;;;;;;2.72;2.52;;;;;;;22.64;67.51;100242.39;;;;-48
2020/08/10 07:24:45;;;;;;;2.73;2.53;;;;;;;22.64;67.55;100239.45;;;;-47
2020/08/10 07:27:45;;;;;;;2.73;2.53;;;;;;;22.64;67.48;100240.19;;;;-48
2020/08/10 07:30:45;;;;;;;2.83;2.63;;;;;;;22.64;67.49;100242.61;;;;-47
2020/08/10 07:33:45;;;;;;;2.87;2.67;;;;;;;22.64;67.53;100247.11;;;;-48
2020/08/10 07:36:45;;;;;;;2.70;2.50;;;;;;;22.64;67.56;100245.48;;;;-46
2020/08/10 07:39:45;;;;;;;2.49;2.29;;;;;;;22.64;67.52;100242.94;;;;-47
2020/08/10 07:42:45;;;;;;;2.70;2.50;;;;;;;22.64;67.54;100245.41;;;;-47
2020/08/10 07:45:45;;;;;;;2.60;2.40;;;;;;;22.64;67.50;100245.34;;;;-47
2020/08/10 07:48:45;;;;;;;2.62;2.42;;;;;;;22.64;67.50;100245.66;;;;-47
2020/08/10 07:51:45;;;;;;;15.31;3.06;;;;;;;22.64;67.96;100242.23;;;;-51
2020/08/10 07:54:45;;;;;;;3.20;2.75;;;;;;;22.65;67.93;100247.18;;;;-48
2020/08/10 07:57:45;;;;;;;6.42;3.16;;;;;;;22.69;68.18;100247.08;;;;-45
2020/08/10 08:00:45;;;;;;;10.00;3.26;;;;;;;22.72;68.39;100249.56;;;;-46
2020/08/10 08:03:45;;;;;;;7.63;3.38;;;;;;;22.75;68.40;100253.30;;;;-47
2020/08/10 08:06:45;;;;;;;9.59;3.26;;;;;;;22.78;68.92;100248.92;;;;-46
2020/08/10 08:09:45;;;;;;;16.04;3.37;;;;;;;22.80;68.95;100244.64;;;;-41
2020/08/10 08:12:45;;;;;;;9.62;3.31;;;;;;;22.83;69.02;100241.28;;;;-46
2020/08/10 08:15:45;;;;;;;18.39;3.75;;;;;;;22.85;69.06;100236.69;;;;-45
2020/08/10 08:18:45;;;;;;;9.09;3.33;;;;;;;22.88;69.01;100235.81;;;;-49
2020/08/10 08:21:45;;;;;;;17.71;3.54;;;;;;;22.89;69.15;100235.33;;;;-46
2020/08/10 08:24:45;;;;;;;16.06;3.57;;;;;;;22.92;69.71;100230.41;;;;-45
2020/08/10 08:27:45;;;;;;;11.44;3.87;;;;;;;22.93;69.51;100228.81;;;;-46
2020/08/10 08:30:45;;;;;;;11.03;3.79;;;;;;;22.95;69.59;100229.95;;;;-46
2020/08/10 08:33:45;;;;;;;12.10;3.59;;;;;;;22.97;69.45;100224.84;;;;-43
2020/08/10 08:36:45;;;;;;;10.71;3.45;;;;;;;22.99;69.74;100224.16;;;;-44
2020/08/10 08:39:45;;;;;;;14.05;3.66;;;;;;;23.00;69.29;100224.48;;;;-44
2020/08/10 08:42:45;;;;;;;13.15;3.88;;;;;;;23.01;69.53;100224.41;;;;-43
2020/08/10 08:45:45;;;;;;;10.05;3.97;;;;;;;23.02;69.35;100222.95;;;;-46
2020/08/10 08:48:45;;;;;;;12.65;3.71;;;;;;;23.03;69.47;100226.52;;;;-45
2020/08/10 08:51:45;;;;;;;7.23;3.39;;;;;;;23.03;69.12;100225.20;;;;-44
2020/08/10 08:54:45;;;;;;;13.31;3.83;;;;;;;23.04;69.22;100224.72;;;;-53
2020/08/10 08:57:45;;;;;;;13.87;4.95;;;;;;;23.05;69.20;100219.31;;;;-46
2020/08/10 09:00:45;;;;;;;13.46;4.33;;;;;;;23.05;69.06;100219.47;;;;-46
2020/08/10 09:03:45;;;;;;;12.83;4.33;;;;;;;23.06;69.34;100219.23;;;;-45
2020/08/10 09:06:45;;;;;;;9.01;4.22;;;;;;;23.05;68.96;100223.14;;;;-46
2020/08/10 09:09:45;;;;;;;8.01;3.87;;;;;;;23.06;68.93;100220.78;;;;-46
2020/08/10 09:12:45;;;;;;;9.09;4.06;;;;;;;23.05;68.86;100220.28;;;;-45
2020/08/10 09:15:45;;;;;;;6.03;3.99;;;;;;;23.05;68.77;100217.27;;;;-45
2020/08/10 09:18:45;;;;;;;13.17;3.99;;;;;;;23.04;68.69;100214.67;;;;-46
2020/08/10 09:21:45;;;;;;;7.21;3.91;;;;;;;23.03;68.62;100216.37;;;;-45
2020/08/10 09:24:45;;;;;;;7.63;3.93;;;;;;;23.03;68.66;100217.45;;;;-46
2020/08/10 09:27:45;;;;;;;8.06;4.31;;;;;;;23.02;68.66;100215.67;;;;-45
2020/08/10 09:30:45;;;;;;;6.23;3.84;;;;;;;23.02;68.57;100219.67;;;;-46
2020/08/10 09:33:45;;;;;;;9.13;4.26;;;;;;;23.02;68.53;100217.23;;;;-46
2020/08/10 09:36:45;;;;;;;10.67;4.08;;;;;;;23.01;68.51;100218.94;;;;-45
2020/08/10 09:39:45;;;;;;;6.58;4.10;;;;;;;23.00;68.41;100215.66;;;;-45
2020/08/10 09:42:45;;;;;;;5.98;3.95;;;;;;;23.00;68.39;100209.78;;;;-46
2020/08/10 09:45:45;;;;;;;7.45;3.83;;;;;;;22.99;68.29;100211.81;;;;-45
2020/08/10 09:48:45;;;;;;;9.33;3.75;;;;;;;23.00;68.23;100216.48;;;;-46
2020/08/10 09:51:45;;;;;;;6.88;3.68;;;;;;;23.00;68.35;100215.92;;;;-46
2020/08/10 09:54:45;;;;;;;9.35;3.91;;;;;;;23.00;68.24;100210.44;;;;-46
2020/08/10 09:57:45;;;;;;;8.20;3.82;;;;;;;23.01;68.54;100206.76;;;;-45
2020/08/10 10:00:45;;;;;;;10.62;4.13;;;;;;;23.02;68.61;100202.03;;;;-41
2020/08/10 10:03:45;;;;;;;5.62;3.85;;;;;;;23.03;68.53;100201.19;;;;-41
2020/08/10 10:06:45;;;;;;;11.69;4.27;;;;;;;23.05;68.70;100198.55;;;;-46
2020/08/10 10:09:45;;;;;;;14.02;4.53;;;;;;;23.06;68.54;100196.58;;;;-46
2020/08/10 10:12:45;;;;;;;12.40;3.91;;;;;;;23.06;68.44;100192.02;;;;-46
2020/08/10 10:15:45;;;;;;;7.75;4.06;;;;;;;23.06;68.68;100192.09;;;;-46
2020/08/10 10:18:45;;;;;;;10.42;4.06;;;;;;;23.07;68.59;100188.06;;;;-49
2020/08/10 10:21:45;;;;;;;9.92;4.25;;;;;;;23.07;68.56;100185.36;;;;-45
2020/08/10 10:24:45;;;;;;;8.49;4.06;;;;;;;23.08;68.56;100189.84;;;;-46
2020/08/10 10:27:45;;;;;;;8.42;4.11;;;;;;;23.09;68.54;100191.62;;;;-48
2020/08/10 10:30:45;;;;;;;7.98;4.00;;;;;;;23.10;68.52;100189.33;;;;-43
2020/08/10 10:33:45;;;;;;;8.11;4.09;;;;;;;23.13;68.54;100190.19;;;;-45
2020/08/10 10:36:45;;;;;;;7.04;4.20;;;;;;;23.13;68.39;100182.91;;;;-44
2020/08/10 10:39:45;;;;;;;4.99;3.77;;;;;;;23.14;68.27;100184.70;;;;-46
2020/08/10 10:42:45;;;;;;;8.74;4.41;;;;;;;23.15;68.75;100176.75;;;;-51
2020/08/10 10:45:45;;;;;;;9.67;4.08;;;;;;;23.16;68.49;100178.78;;;;-46
2020/08/10 10:48:45;;;;;;;5.76;3.89;;;;;;;23.16;68.51;100176.02;;;;-46
2020/08/10 10:51:45;;;;;;;11.89;4.15;;;;;;;23.16;68.52;100172.91;;;;-48
2020/08/10 10:54:45;;;;;;;7.33;4.10;;;;;;;23.17;68.43;100172.06;;;;-44
2020/08/10 10:57:45;;;;;;;6.93;4.07;;;;;;;23.18;68.54;100167.74;;;;-50
2020/08/10 11:00:45;;;;;;;8.43;4.19;;;;;;;23.19;68.45;100169.02;;;;-43
2020/08/10 11:03:45;;;;;;;6.20;3.71;;;;;;;23.18;68.50;100167.58;;;;-49
2020/08/10 11:06:45;;;;;;;6.17;3.98;;;;;;;23.20;68.52;100165.83;;;;-47
2020/08/10 11:09:45;;;;;;;6.80;3.90;;;;;;;23.19;68.72;100165.73;;;;-47
2020/08/10 11:12:45;;;;;;;6.53;3.91;;;;;;;23.19;68.52;100163.77;;;;-51
2020/08/10 11:15:45;;;;;;;5.97;3.80;;;;;;;23.20;68.41;100162.47;;;;-55
2020/08/10 11:18:45;;;;;;;8.32;3.66;;;;;;;23.20;68.48;100160.59;;;;-44
2020/08/10 11:21:45;;;;;;;5.77;4.06;;;;;;;23.22;68.70;100156.95;;;;-48
2020/08/10 11:24:45;;;;;;;10.96;4.24;;;;;;;23.20;68.30;100154.69;;;;-47
2020/08/10 11:27:45;;;;;;;10.73;4.14;;;;;;;23.19;68.29;100157.07;;;;-47
2020/08/10 11:30:45;;;;;;;6.99;3.76;;;;;;;23.20;68.23;100157.31;;;;-48
2020/08/10 11:33:45;;;;;;;5.81;3.93;;;;;;;23.18;68.13;100151.14;;;;-47
2020/08/10 11:36:45;;;;;;;7.97;4.03;;;;;;;23.18;68.15;100151.88;;;;-47
2020/08/10 11:39:45;;;;;;;6.33;4.03;;;;;;;23.17;68.05;100146.56;;;;-47
2020/08/10 11:42:45;;;;;;;7.83;3.83;;;;;;;23.17;68.04;100141.58;;;;-47
2020/08/10 11:45:45;;;;;;;5.92;3.73;;;;;;;23.16;68.05;100142.91;;;;-46
2020/08/10 11:48:45;;;;;;;7.09;3.69;;;;;;;23.16;68.00;100139.40;;;;-47
2020/08/10 11:51:45;;;;;;;7.78;4.01;;;;;;;23.15;68.01;100128.77;;;;-47
2020/08/10 11:54:45;;;;;;;6.54;4.07;;;;;;;23.15;67.98;100131.64;;;;-49
2020/08/10 11:57:45;;;;;;;8.33;3.85;;;;;;;23.14;67.97;100123.23;;;;-47
2020/08/10 12:00:45;;;;;;;6.69;3.83;;;;;;;23.14;67.96;100119.31;;;;-47
2020/08/10 12:03:45;;;;;;;6.00;3.69;;;;;;;23.14;67.90;100122.91;;;;-47
2020/08/10 12:06:45;;;;;;;5.63;3.80;;;;;;;23.14;67.96;100119.24;;;;-47
2020/08/10 12:09:45;;;;;;;4.53;3.69;;;;;;;23.13;67.89;100118.66;;;;-47
2020/08/10 12:12:45;;;;;;;5.25;3.80;;;;;;;23.13;67.87;100118.66;;;;-47
2020/08/10 12:15:45;;;;;;;6.59;3.92;;;;;;;23.12;68.02;100117.20;;;;-45
2020/08/10 12:18:45;;;;;;;22.09;4.55;;;;;;;23.13;68.29;100110.89;;;;-50
2020/08/10 12:21:45;;;;;;;16.42;4.29;;;;;;;23.17;68.33;100111.91;;;;-45
2020/08/10 12:24:45;;;;;;;14.81;4.05;;;;;;;23.18;68.29;100114.75;;;;-44
2020/08/10 12:27:45;;;;;;;12.75;4.23;;;;;;;23.19;68.34;100114.89;;;;-47
2020/08/10 12:30:45;;;;;;;10.76;4.67;;;;;;;23.20;68.38;100110.71;;;;-43
2020/08/10 12:33:45;;;;;;;13.77;4.45;;;;;;;23.20;68.55;100104.59;;;;-46
2020/08/10 12:36:45;;;;;;;12.43;4.29;;;;;;;23.20;68.25;100105.16;;;;-47
2020/08/10 12:39:45;;;;;;;12.33;4.24;;;;;;;23.19;68.15;100098.70;;;;-48
2020/08/10 12:42:45;;;;;;;12.36;4.30;;;;;;;23.20;68.43;100097.31;;;;-48
2020/08/10 12:45:45;;;;;;;7.53;4.59;;;;;;;23.19;68.46;100100.66;;;;-49
2020/08/10 12:48:45;;;;;;;11.47;4.89;;;;;;;23.20;68.46;100097.87;;;;-48
2020/08/10 12:51:45;;;;;;;7.58;4.41;;;;;;;23.19;68.55;100094.45;;;;-45
2020/08/10 12:54:45;;;;;;;8.97;5.08;;;;;;;23.22;68.60;100091.48;;;;-44
2020/08/10 12:57:45;;;;;;;13.57;4.75;;;;;;;23.23;68.56;100092.37;;;;-44
2020/08/10 13:00:45;;;;;;;10.19;4.32;;;;;;;23.24;68.56;100094.64;;;;-46
2020/08/10 13:03:45;;;;;;;10.37;4.59;;;;;;;23.25;68.62;100084.41;;;;-48
2020/08/10 13:06:45;;;;;;;7.83;5.03;;;;;;;23.26;68.72;100088.96;;;;-50
2020/08/10 13:09:45;;;;;;;9.61;4.61;;;;;;;23.27;68.44;100085.69;;;;-50
2020/08/10 13:12:45;;;;;;;8.01;4.55;;;;;;;23.27;68.33;100086.67;;;;-51
2020/08/10 13:15:45;;;;;;;7.26;4.32;;;;;;;23.25;68.31;100072.86;;;;-51
2020/08/10 13:21:45;;;;;;;9.26;5.00;;;;;;;23.25;68.68;100066.83;;;;-45
2020/08/10 13:24:45;;;;;;;9.67;4.73;;;;;;;23.24;68.76;100066.02;;;;-48
2020/08/10 13:27:45;;;;;;;6.50;4.97;;;;;;;23.25;68.77;100066.02;;;;-47
2020/08/10 13:30:45;;;;;;;6.76;5.25;;;;;;;23.24;68.68;100063.47;;;;-45
2020/08/10 13:33:45;;;;;;;10.15;4.89;;;;;;;23.25;68.77;100059.72;;;;-47
2020/08/10 13:36:45;;;;;;;6.69;4.80;;;;;;;23.25;68.75;100053.75;;;;-43
2020/08/10 13:39:45;;;;;;;7.08;5.00;;;;;;;23.25;68.80;100051.12;;;;-46
2020/08/10 13:42:45;;;;;;;6.07;4.98;;;;;;;23.25;68.82;100051.44;;;;-43
2020/08/10 13:45:45;;;;;;;7.64;4.93;;;;;;;23.26;68.77;100046.86;;;;-50
2020/08/10 13:48:45;;;;;;;7.88;5.08;;;;;;;23.27;68.68;100035.66;;;;-44
2020/08/10 13:51:45;;;;;;;7.15;5.05;;;;;;;23.28;68.76;100036.91;;;;-45
2020/08/10 13:54:45;;;;;;;9.19;5.28;;;;;;;23.29;68.75;100036.91;;;;-51
2020/08/10 13:57:45;;;;;;;6.09;5.39;;;;;;;23.30;68.63;100034.77;;;;-46
2020/08/10 14:00:45;;;;;;;6.30;5.03;;;;;;;23.31;68.74;100035.41;;;;-43
2020/08/10 14:03:45;;;;;;;7.20;5.19;;;;;;;23.30;68.78;100031.65;;;;-45
2020/08/10 14:06:45;;;;;;;7.71;4.92;;;;;;;23.32;68.80;100031.63;;;;-47
2020/08/10 14:09:45;;;;;;;7.51;4.93;;;;;;;23.30;68.87;100028.39;;;;-44
2020/08/10 14:12:45;;;;;;;6.25;5.07;;;;;;;23.30;68.78;100025.03;;;;-49
2020/08/10 14:15:46;;;;;;;5.80;5.01;;;;;;;23.29;68.84;100024.58;;;;-48
2020/08/10 14:18:45;;;;;;;7.41;5.10;;;;;;;23.29;68.63;100017.53;;;;-47
2020/08/10 14:21:45;;;;;;;7.53;5.04;;;;;;;23.30;68.70;100017.69;;;;-44
2020/08/10 14:24:45;;;;;;;5.86;4.91;;;;;;;23.30;68.47;100013.42;;;;-45
2020/08/10 14:27:45;;;;;;;5.44;4.87;;;;;;;23.30;68.48;100012.20;;;;-45
2020/08/10 14:30:45;;;;;;;7.99;5.08;;;;;;;23.29;68.32;100012.97;;;;-44
2020/08/10 14:33:45;;;;;;;5.11;4.61;;;;;;;23.28;68.28;100014.29;;;;-45
2020/08/10 14:36:45;;;;;;;5.26;4.57;;;;;;;23.28;68.22;100007.41;;;;-45
2020/08/10 14:39:45;;;;;;;6.08;4.65;;;;;;;23.27;68.20;100004.17;;;;-46
2020/08/10 14:42:45;;;;;;;5.88;4.43;;;;;;;23.26;68.18;100009.89;;;;-44
2020/08/10 14:45:45;;;;;;;6.29;4.70;;;;;;;23.25;68.12;100007.80;;;;-44
2020/08/10 14:48:45;;;;;;;5.32;4.63;;;;;;;23.24;68.11;100001.68;;;;-44
2020/08/10 14:51:45;;;;;;;5.01;4.50;;;;;;;23.23;68.10;99996.30;;;;-44
2020/08/10 14:54:45;;;;;;;5.25;4.75;;;;;;;23.22;68.05;99998.52;;;;-44
2020/08/10 14:57:45;;;;;;;13.10;5.33;;;;;;;23.22;68.35;99991.56;;;;-44
2020/08/10 15:00:45;;;;;;;6.00;4.93;;;;;;;23.23;68.39;99986.09;;;;-46
2020/08/10 15:03:45;;;;;;;7.83;5.05;;;;;;;23.22;68.19;99992.70;;;;-44
2020/08/10 15:06:45;;;;;;;6.04;4.77;;;;;;;23.21;68.15;99990.38;;;;-50
2020/08/10 15:09:45;;;;;;;11.64;5.01;;;;;;;23.22;68.54;99987.30;;;;-44
2020/08/10 15:12:45;;;;;;;8.25;5.00;;;;;;;23.24;68.54;99994.65;;;;-54
2020/08/10 15:15:45;;;;;;;10.22;4.99;;;;;;;23.23;68.56;99990.98;;;;-52
2020/08/10 15:18:45;;;;;;;6.48;4.83;;;;;;;23.25;68.56;99992.41;;;;-53
2020/08/10 15:21:45;;;;;;;7.85;4.76;;;;;;;23.27;68.62;99988.30;;;;-41
2020/08/10 15:24:45;;;;;;;6.44;4.73;;;;;;;23.28;68.69;99980.68;;;;-46
2020/08/10 15:27:45;;;;;;;7.41;5.23;;;;;;;23.28;68.61;99977.72;;;;-49
2020/08/10 15:30:45;;;;;;;10.43;4.96;;;;;;;23.29;68.62;99976.81;;;;-46
2020/08/10 15:33:45;;;;;;;5.88;4.58;;;;;;;23.30;68.76;99972.78;;;;-47
2020/08/10 15:36:45;;;;;;;7.03;4.69;;;;;;;23.31;68.67;99971.30;;;;-46
2020/08/10 15:39:45;;;;;;;6.57;4.79;;;;;;;23.32;68.64;99968.91;;;;-45
2020/08/10 15:42:45;;;;;;;8.91;4.83;;;;;;;23.33;68.75;99965.80;;;;-41
2020/08/10 15:45:45;;;;;;;6.25;4.89;;;;;;;23.35;68.76;99962.58;;;;-49
2020/08/10 15:48:45;;;;;;;9.55;4.82;;;;;;;23.35;68.77;99962.19;;;;-42
2020/08/10 15:51:45;;;;;;;6.27;4.95;;;;;;;23.36;68.83;99961.50;;;;-43
2020/08/10 15:54:45;;;;;;;5.25;4.75;;;;;;;23.37;68.86;99959.44;;;;-44
2020/08/10 15:57:45;;;;;;;6.91;4.73;;;;;;;23.37;68.83;99961.38;;;;-47
2020/08/10 16:00:45;;;;;;;5.29;4.73;;;;;;;23.38;68.82;99960.53;;;;-43
2020/08/10 16:03:45;;;;;;;5.47;4.67;;;;;;;23.40;68.90;99963.87;;;;-49
2020/08/10 16:06:45;;;;;;;5.24;4.73;;;;;;;23.40;68.86;99964.20;;;;-43
2020/08/10 16:09:45;;;;;;;8.31;4.85;;;;;;;23.41;68.87;99966.30;;;;-41
2020/08/10 16:12:45;;;;;;;7.41;4.63;;;;;;;23.40;68.83;99963.44;;;;-50
2020/08/10 16:15:45;;;;;;;5.25;4.61;;;;;;;23.43;68.79;99957.92;;;;-52
2020/08/10 16:18:45;;;;;;;7.99;5.07;;;;;;;23.42;68.78;99957.28;;;;-43
2020/08/10 16:21:45;;;;;;;6.10;4.67;;;;;;;23.42;68.66;99955.41;;;;-45
2020/08/10 16:24:45;;;;;;;5.74;5.15;;;;;;;23.42;68.83;99954.27;;;;-47
2020/08/10 16:27:45;;;;;;;7.79;5.01;;;;;;;23.42;68.93;99953.03;;;;-50
2020/08/10 16:30:45;;;;;;;7.69;5.39;;;;;;;23.44;68.80;99955.22;;;;-48
2020/08/10 16:33:45;;;;;;;11.19;5.28;;;;;;;23.46;68.92;99955.50;;;;-40
2020/08/10 16:36:46;;;;;;;8.41;5.46;;;;;;;23.48;68.89;99954.73;;;;-47
2020/08/10 16:39:45;;;;;;;8.91;5.50;;;;;;;23.50;69.32;99951.91;;;;-45
2020/08/10 16:42:45;;;;;;;8.56;5.27;;;;;;;23.53;69.57;99952.83;;;;-45
2020/08/10 16:45:45;;;;;;;9.11;5.39;;;;;;;23.54;69.24;99950.30;;;;-47
2020/08/10 16:48:45;;;;;;;7.73;5.52;;;;;;;23.55;69.23;99956.64;;;;-51
2020/08/10 16:51:45;;;;;;;10.83;5.24;;;;;;;23.55;69.06;99956.89;;;;-47